Haven, Kansas
Current Conditions -  °F | °C
As of 5:52 AM on Wednesday 28 Jan 2015 (Local Time) from KHUT Reporting Station
Clear Clear  
Wind Chill: 36°   Ceiling: Unl
Heat Index: 40°   Visibility: 10mi
Dew Point: 32°   Wind: 6mph
Humidity: 73%   Direction: 140°SE
Pressure: 29.88"   Gusts: NA
Location:  37.9°N, 97.78°W
Report Text: KHUT 281152Z AUTO 14005KT 10SM CLR 04/00 A2988 RMK AO2 SLP111 T00440000 10072 20022 56015
Loading
Personal Weather Stations






























Interactive Weather Map New forecast layout! Learn more

10-Day Weather Forecast

Advertisements
Track Severe Weather on mobile